Time;durP1;ratioP1;P1;durP2;ratioP2;P2;SDS_P1;SDS_P2;PMS_P1;PMS_P2;Temp;Humidity;BMP_temperature;BMP_pressure;BME280_temperature;BME280_humidity;BME280_pressure;Samples;Min_cycle;Max_cycle;Signal;HPM_P1;HPM_P2
2023/10/26 00:00:12;;;;;;;32.72;16.00;;;;;;;;;;5055201;28;20099;-79
2023/10/26 00:02:37;;;;;;;30.60;18.25;;;;;;;;;;5071555;28;20450;-79
2023/10/26 00:05:02;;;;;;;30.75;15.43;;;;;;;;;;5071486;28;20027;-79
2023/10/26 00:07:28;;;;;;;33.85;16.23;;;;;;;;;;5071359;28;20024;-80
2023/10/26 00:09:53;;;;;;;27.17;15.38;;;;;;;;;;5054802;28;20103;-79
2023/10/26 00:12:18;;;;;;;32.00;15.38;;;;;;;;;;5071586;28;20028;-79
2023/10/26 00:14:44;;;;;;;32.53;17.70;;;;;;;;;;5071565;28;20028;-79
2023/10/26 00:17:09;;;;;;;30.98;15.90;;;;;;;;;;5061930;28;20050;-79
2023/10/26 00:19:37;;;;;;;36.10;18.38;;;;;;;;;;5071328;28;20025;-79
2023/10/26 00:22:11;;;;;;;34.67;16.52;;;;;;;;;;5072324;28;20021;-79
2023/10/26 00:24:37;;;;;;;29.15;15.45;;;;;;;;;;5071130;28;20115;-79
2023/10/26 00:27:03;;;;;;;28.55;14.52;;;;;;;;;;5060977;28;20063;-79
2023/10/26 00:29:29;;;;;;;47.22;18.80;;;;;;;;;;5072360;28;20022;-79
2023/10/26 00:31:55;;;;;;;30.92;15.48;;;;;;;;;;5072510;28;20021;-79
2023/10/26 00:34:20;;;;;;;29.80;15.07;;;;;;;;;;5071097;28;20038;-79
2023/10/26 00:36:45;;;;;;;32.78;16.25;;;;;;;;;;5064555;28;20033;-79
2023/10/26 00:39:11;;;;;;;30.85;16.17;;;;;;;;;;5054138;28;20047;-79
2023/10/26 00:41:39;;;;;;;25.58;14.93;;;;;;;;;;5070642;28;20483;-80
2023/10/26 00:44:04;;;;;;;29.30;14.82;;;;;;;;;;5070821;28;20342;-79
2023/10/26 00:46:30;;;;;;;28.02;14.75;;;;;;;;;;5066937;28;20035;-80
2023/10/26 00:48:59;;;;;;;27.88;14.82;;;;;;;;;;5054267;28;20078;-79
2023/10/26 00:51:24;;;;;;;34.95;14.63;;;;;;;;;;5072282;28;20101;-80
2023/10/26 00:53:50;;;;;;;25.95;14.35;;;;;;;;;;5087794;28;20082;-79
2023/10/26 00:56:18;;;;;;;24.77;13.57;;;;;;;;;;5069962;28;20035;-80
2023/10/26 00:58:44;;;;;;;25.33;13.30;;;;;;;;;;5070865;28;20043;-79
2023/10/26 01:01:10;;;;;;;26.63;14.10;;;;;;;;;;5070784;28;20021;-80
2023/10/26 01:03:35;;;;;;;27.00;14.73;;;;;;;;;;5070493;28;20027;-80
2023/10/26 01:06:01;;;;;;;29.25;14.35;;;;;;;;;;5070627;28;20024;-79
2023/10/26 01:08:26;;;;;;;23.88;13.70;;;;;;;;;;5070705;28;20020;-79
2023/10/26 01:10:51;;;;;;;28.40;14.48;;;;;;;;;;5070870;28;20380;-79
2023/10/26 01:13:17;;;;;;;25.83;14.25;;;;;;;;;;5071938;28;20024;-80
2023/10/26 01:15:42;;;;;;;29.65;13.90;;;;;;;;;;5070647;28;20033;-80
2023/10/26 01:18:08;;;;;;;28.63;14.40;;;;;;;;;;5063129;28;20059;-79
2023/10/26 01:20:33;;;;;;;34.47;15.27;;;;;;;;;;5070506;28;20021;-80
2023/10/26 01:22:59;;;;;;;35.13;14.70;;;;;;;;;;5070722;28;20028;-79
2023/10/26 01:25:24;;;;;;;34.92;14.00;;;;;;;;;;5070573;28;20036;-79
2023/10/26 01:27:49;;;;;;;27.52;14.63;;;;;;;;;;5056305;28;20025;-79
2023/10/26 01:30:17;;;;;;;28.33;14.00;;;;;;;;;;5070498;28;20577;-79
2023/10/26 01:32:43;;;;;;;41.75;13.82;;;;;;;;;;5067674;28;20033;-79
2023/10/26 01:35:08;;;;;;;34.03;14.40;;;;;;;;;;5070685;28;20024;-80
2023/10/26 01:37:33;;;;;;;27.60;13.93;;;;;;;;;;5070307;28;20395;-79
2023/10/26 01:39:59;;;;;;;28.17;13.77;;;;;;;;;;5070423;28;20020;-79
2023/10/26 01:42:24;;;;;;;23.67;13.20;;;;;;;;;;5069987;28;20525;-79
2023/10/26 01:44:49;;;;;;;23.52;12.48;;;;;;;;;;5071851;28;20021;-79
2023/10/26 01:47:17;;;;;;;25.05;13.18;;;;;;;;;;5083895;28;20121;-79
2023/10/26 01:49:44;;;;;;;24.15;12.40;;;;;;;;;;5056419;28;20017;-79
2023/10/26 01:52:10;;;;;;;25.20;12.95;;;;;;;;;;5070306;28;20392;-79
2023/10/26 01:54:35;;;;;;;27.63;12.32;;;;;;;;;;5072344;28;20020;-79
2023/10/26 01:57:00;;;;;;;26.67;14.75;;;;;;;;;;5073750;28;20108;-79
2023/10/26 01:59:25;;;;;;;25.75;12.75;;;;;;;;;;5073520;28;20144;-79
2023/10/26 02:01:51;;;;;;;22.80;12.02;;;;;;;;;;5075109;28;20017;-79
2023/10/26 02:04:16;;;;;;;29.40;14.15;;;;;;;;;;5073698;28;20032;-79
2023/10/26 02:06:41;;;;;;;38.50;16.13;;;;;;;;;;5073436;28;20103;-79
2023/10/26 02:09:06;;;;;;;27.92;13.82;;;;;;;;;;5073600;28;20028;-80
2023/10/26 02:11:32;;;;;;;27.50;13.50;;;;;;;;;;5073634;28;20095;-79
2023/10/26 02:13:57;;;;;;;26.88;14.23;;;;;;;;;;5073580;28;20024;-80
2023/10/26 02:16:22;;;;;;;26.23;13.00;;;;;;;;;;5074773;28;20036;-80
2023/10/26 02:18:47;;;;;;;25.90;14.00;;;;;;;;;;5056835;28;20017;-79
2023/10/26 02:21:12;;;;;;;25.00;12.82;;;;;;;;;;5073430;28;20476;-79
2023/10/26 02:23:41;;;;;;;24.65;12.40;;;;;;;;;;5090316;28;20117;-79
2023/10/26 02:26:06;;;;;;;26.88;11.38;;;;;;;;;;5068444;28;20021;-80
2023/10/26 02:28:31;;;;;;;23.10;12.13;;;;;;;;;;5055550;28;20031;-79
2023/10/26 02:30:57;;;;;;;26.85;13.10;;;;;;;;;;5059303;28;20016;-79
2023/10/26 02:33:22;;;;;;;25.15;12.70;;;;;;;;;;5073436;28;20040;-79
2023/10/26 02:35:47;;;;;;;21.90;11.70;;;;;;;;;;5066186;28;20025;-80
2023/10/26 02:38:13;;;;;;;21.02;11.15;;;;;;;;;;5071979;28;20102;-79
2023/10/26 02:40:38;;;;;;;19.77;11.15;;;;;;;;;;5090165;28;20018;-79
2023/10/26 02:43:06;;;;;;;28.10;12.45;;;;;;;;;;5090114;28;20048;-79
2023/10/26 02:45:32;;;;;;;22.50;12.02;;;;;;;;;;5089945;28;20025;-79
2023/10/26 02:47:57;;;;;;;21.67;11.73;;;;;;;;;;5084383;28;20031;-79
2023/10/26 02:50:23;;;;;;;26.45;12.15;;;;;;;;;;5089982;28;20016;-78
2023/10/26 02:52:48;;;;;;;23.25;12.13;;;;;;;;;;5090012;28;20012;-79
2023/10/26 02:55:13;;;;;;;27.45;13.93;;;;;;;;;;5056313;28;20115;-79
2023/10/26 02:57:39;;;;;;;20.50;11.93;;;;;;;;;;5082675;28;20461;-79
2023/10/26 03:00:05;;;;;;;26.17;11.85;;;;;;;;;;5089916;28;20017;-79
2023/10/26 03:02:31;;;;;;;21.33;11.25;;;;;;;;;;5089418;28;20016;-79
2023/10/26 03:04:56;;;;;;;20.77;11.30;;;;;;;;;;5073975;28;20074;-79
2023/10/26 03:07:24;;;;;;;17.35;9.60;;;;;;;;;;5055942;28;20491;-79
2023/10/26 03:09:52;;;;;;;33.22;10.50;;;;;;;;;;5059029;28;20032;-79
2023/10/26 03:12:18;;;;;;;20.55;11.20;;;;;;;;;;5072566;28;20126;-79
2023/10/26 03:14:43;;;;;;;20.35;11.15;;;;;;;;;;5055599;28;20430;-79
2023/10/26 03:17:09;;;;;;;23.58;12.23;;;;;;;;;;5082760;28;20155;-79
2023/10/26 03:19:35;;;;;;;20.17;11.07;;;;;;;;;;5052236;28;20013;-79
2023/10/26 03:22:00;;;;;;;24.25;12.45;;;;;;;;;;5055750;28;20074;-79
2023/10/26 03:24:25;;;;;;;25.40;12.35;;;;;;;;;;5089144;28;20017;-79
2023/10/26 03:26:50;;;;;;;21.23;11.63;;;;;;;;;;5068329;28;20079;-79
2023/10/26 03:29:16;;;;;;;19.75;11.10;;;;;;;;;;5055514;28;20028;-79
2023/10/26 03:31:41;;;;;;;18.10;10.68;;;;;;;;;;5088775;28;20029;-79
2023/10/26 03:34:09;;;;;;;18.05;10.30;;;;;;;;;;5089185;28;20472;-79
2023/10/26 03:36:34;;;;;;;17.98;10.15;;;;;;;;;;5088026;28;20072;-79
2023/10/26 03:39:00;;;;;;;16.80;9.60;;;;;;;;;;5088938;28;20080;-79
2023/10/26 03:41:25;;;;;;;17.55;10.10;;;;;;;;;;5055390;28;20024;-79
2023/10/26 03:43:51;;;;;;;17.23;9.75;;;;;;;;;;5055139;28;20583;-79
2023/10/26 03:46:16;;;;;;;16.02;9.48;;;;;;;;;;5055124;28;20021;-79
2023/10/26 03:48:41;;;;;;;15.25;9.05;;;;;;;;;;5054878;28;20143;-79
2023/10/26 03:51:07;;;;;;;17.50;10.20;;;;;;;;;;5055216;28;20043;-79
2023/10/26 03:53:32;;;;;;;16.02;9.93;;;;;;;;;;5088654;28;20099;-79
2023/10/26 03:55:58;;;;;;;15.43;8.93;;;;;;;;;;5054660;28;20060;-79
2023/10/26 03:58:23;;;;;;;14.50;8.90;;;;;;;;;;5054710;28;20074;-78
2023/10/26 04:00:51;;;;;;;15.50;8.93;;;;;;;;;;5054951;28;20039;-79
2023/10/26 04:03:16;;;;;;;13.90;8.82;;;;;;;;;;5054893;28;20044;-79
2023/10/26 04:05:41;;;;;;;14.30;8.93;;;;;;;;;;5054600;28;20051;-79
2023/10/26 04:08:07;;;;;;;13.55;8.55;;;;;;;;;;5054858;28;20028;-80
2023/10/26 04:10:34;;;;;;;15.35;9.00;;;;;;;;;;5054606;28;20028;-79
2023/10/26 04:12:59;;;;;;;13.52;8.18;;;;;;;;;;5054585;28;20196;-79
2023/10/26 04:15:24;;;;;;;13.80;8.65;;;;;;;;;;5072131;28;20028;-79
2023/10/26 04:17:50;;;;;;;22.27;8.50;;;;;;;;;;5071824;28;20051;-79
2023/10/26 04:20:15;;;;;;;12.15;7.70;;;;;;;;;;5054738;28;20044;-80
2023/10/26 04:22:40;;;;;;;12.80;8.05;;;;;;;;;;5054432;28;20027;-79
2023/10/26 04:25:06;;;;;;;12.98;8.10;;;;;;;;;;5054836;28;20040;-79
2023/10/26 04:27:35;;;;;;;13.38;8.60;;;;;;;;;;5054019;28;20071;-79
2023/10/26 04:30:00;;;;;;;13.43;7.93;;;;;;;;;;5054814;28;20411;-79
2023/10/26 04:32:26;;;;;;;12.60;8.60;;;;;;;;;;5054523;28;20024;-80
2023/10/26 04:34:53;;;;;;;19.88;8.90;;;;;;;;;;5072175;28;20051;-79
2023/10/26 04:37:18;;;;;;;14.55;8.90;;;;;;;;;;5054255;28;20474;-79
2023/10/26 04:39:43;;;;;;;15.30;8.85;;;;;;;;;;5072458;28;20393;-79
2023/10/26 04:42:12;;;;;;;13.90;8.23;;;;;;;;;;5049144;28;20518;-79
2023/10/26 04:44:38;;;;;;;13.30;8.38;;;;;;;;;;5051301;28;20394;-79
2023/10/26 04:47:03;;;;;;;14.60;8.52;;;;;;;;;;5053997;28;20036;-79
2023/10/26 04:49:29;;;;;;;16.13;9.68;;;;;;;;;;5054100;28;20028;-79
2023/10/26 04:51:54;;;;;;;14.57;8.82;;;;;;;;;;5053962;28;20069;-79
2023/10/26 04:54:19;;;;;;;14.95;9.02;;;;;;;;;;5054068;28;20029;-79
2023/10/26 04:56:44;;;;;;;13.75;8.20;;;;;;;;;;5053592;28;20476;-79
2023/10/26 04:59:12;;;;;;;18.42;9.00;;;;;;;;;;5053955;28;20027;-79
2023/10/26 05:01:37;;;;;;;14.40;8.65;;;;;;;;;;5053565;28;20095;-79
2023/10/26 05:04:03;;;;;;;14.70;9.25;;;;;;;;;;5049699;28;20174;-79
2023/10/26 05:06:28;;;;;;;14.90;8.77;;;;;;;;;;5043730;28;20160;-79
2023/10/26 05:08:53;;;;;;;15.35;8.63;;;;;;;;;;5053633;28;20082;-79
2023/10/26 05:11:18;;;;;;;14.70;8.18;;;;;;;;;;5053889;28;20463;-79
2023/10/26 05:13:44;;;;;;;14.23;9.10;;;;;;;;;;5053804;28;20112;-79
2023/10/26 05:16:10;;;;;;;17.50;8.93;;;;;;;;;;5081786;28;20052;-79
2023/10/26 05:18:36;;;;;;;12.98;7.97;;;;;;;;;;5050278;28;20481;-78
2023/10/26 05:21:02;;;;;;;14.82;8.10;;;;;;;;;;5053250;28;20043;-80
2023/10/26 05:23:27;;;;;;;13.63;7.93;;;;;;;;;;5071819;28;20091;-79
2023/10/26 05:25:52;;;;;;;13.93;8.23;;;;;;;;;;5053506;28;20051;-79
2023/10/26 05:28:17;;;;;;;14.25;8.80;;;;;;;;;;5055581;28;20020;-79
2023/10/26 05:30:43;;;;;;;15.50;8.88;;;;;;;;;;5057732;28;20025;-80
2023/10/26 05:33:08;;;;;;;15.73;8.40;;;;;;;;;;5057559;28;20040;-79
2023/10/26 05:35:34;;;;;;;13.35;7.97;;;;;;;;;;5075585;28;20021;-79
2023/10/26 05:37:59;;;;;;;12.88;8.05;;;;;;;;;;5073885;28;20482;-80
2023/10/26 05:40:25;;;;;;;13.07;7.72;;;;;;;;;;5057618;28;20085;-79
2023/10/26 05:42:50;;;;;;;12.20;7.70;;;;;;;;;;5057487;28;20021;-79
2023/10/26 05:45:15;;;;;;;12.23;7.43;;;;;;;;;;5075655;28;20424;-79
2023/10/26 05:47:41;;;;;;;18.33;8.85;;;;;;;;;;5057261;28;20043;-80
2023/10/26 05:50:06;;;;;;;15.57;8.68;;;;;;;;;;5057502;28;20056;-79
2023/10/26 05:52:31;;;;;;;15.45;8.60;;;;;;;;;;5075472;28;20024;-79
2023/10/26 05:54:58;;;;;;;13.85;8.27;;;;;;;;;;5057323;28;20436;-79
2023/10/26 05:57:25;;;;;;;15.02;8.02;;;;;;;;;;5057074;28;20035;-79
2023/10/26 05:59:50;;;;;;;12.70;7.38;;;;;;;;;;5075031;28;20092;-80
2023/10/26 06:02:16;;;;;;;16.67;8.32;;;;;;;;;;5056872;28;20048;-79
2023/10/26 06:04:41;;;;;;;14.32;8.50;;;;;;;;;;5057061;28;20032;-80
2023/10/26 06:07:06;;;;;;;14.18;8.73;;;;;;;;;;5056361;28;20073;-79
2023/10/26 06:09:31;;;;;;;15.40;8.50;;;;;;;;;;5056735;28;20498;-79
2023/10/26 06:11:57;;;;;;;13.88;8.52;;;;;;;;;;5056962;28;20021;-79
2023/10/26 06:14:22;;;;;;;17.60;9.35;;;;;;;;;;5056930;28;20021;-79
2023/10/26 06:16:47;;;;;;;18.30;8.48;;;;;;;;;;5056614;28;20442;-80
2023/10/26 06:19:12;;;;;;;17.95;9.73;;;;;;;;;;5056258;28;20020;-79
2023/10/26 06:21:39;;;;;;;15.85;8.82;;;;;;;;;;5055245;28;20039;-80
2023/10/26 06:24:07;;;;;;;16.92;9.38;;;;;;;;;;5056321;28;20028;-81
2023/10/26 06:26:32;;;;;;;14.02;7.70;;;;;;;;;;5056429;28;20371;-80
2023/10/26 06:28:57;;;;;;;15.57;8.85;;;;;;;;;;5056380;28;20017;-81
2023/10/26 06:31:23;;;;;;;14.23;8.73;;;;;;;;;;5056102;28;20024;-80
2023/10/26 06:33:48;;;;;;;15.32;8.98;;;;;;;;;;5055616;28;20036;-81
2023/10/26 06:36:13;;;;;;;11.30;5.75;;;;;;;;;;5056124;28;20430;-81
2023/10/26 06:38:41;;;;;;;15.40;8.10;;;;;;;;;;5055534;28;20036;-80
2023/10/26 06:41:08;;;;;;;14.23;8.13;;;;;;;;;;5055105;28;20433;-81
2023/10/26 06:43:34;;;;;;;15.55;8.63;;;;;;;;;;5056010;28;20521;-81
2023/10/26 06:46:00;;;;;;;13.95;8.15;;;;;;;;;;5056120;28;20028;-81
2023/10/26 06:48:25;;;;;;;15.40;8.80;;;;;;;;;;5055614;28;20020;-80
2023/10/26 06:50:56;;;;;;;13.88;8.52;;;;;;;;;;5056077;28;20433;-81
2023/10/26 06:53:22;;;;;;;12.80;7.82;;;;;;;;;;5056015;28;20056;-80
2023/10/26 06:55:47;;;;;;;15.13;8.18;;;;;;;;;;5055235;28;20036;-81
2023/10/26 06:58:12;;;;;;;13.98;7.75;;;;;;;;;;5055504;28;21566;-80
2023/10/26 07:00:40;;;;;;;19.67;8.80;;;;;;;;;;5055379;28;20112;-81
2023/10/26 07:03:05;;;;;;;16.05;9.15;;;;;;;;;;5055245;28;20017;-81
2023/10/26 07:05:32;;;;;;;16.45;9.90;;;;;;;;;;5055170;28;20111;-80
2023/10/26 07:07:59;;;;;;;17.73;9.73;;;;;;;;;;5088307;28;20025;-81
2023/10/26 07:10:25;;;;;;;12.70;7.13;;;;;;;;;;5054188;28;20036;-80
2023/10/26 07:12:50;;;;;;;20.05;9.85;;;;;;;;;;5049445;28;20046;-81
2023/10/26 07:15:16;;;;;;;16.02;8.25;;;;;;;;;;5053728;28;20024;-82
2023/10/26 07:17:44;;;;;;;20.35;10.25;;;;;;;;;;5054507;28;20021;-81
2023/10/26 07:20:09;;;;;;;18.33;9.38;;;;;;;;;;5055042;28;20016;-81
2023/10/26 07:22:35;;;;;;;19.10;9.20;;;;;;;;;;5054492;28;20034;-81
2023/10/26 07:25:01;;;;;;;20.77;10.25;;;;;;;;;;5089006;28;20021;-81
2023/10/26 07:27:27;;;;;;;17.92;9.43;;;;;;;;;;5082092;28;20009;-80
2023/10/26 07:29:52;;;;;;;20.67;10.52;;;;;;;;;;5055408;28;20028;-80
2023/10/26 07:32:20;;;;;;;17.80;9.35;;;;;;;;;;5084238;28;20636;-80
2023/10/26 07:34:45;;;;;;;22.23;10.30;;;;;;;;;;5054750;28;20034;-80
2023/10/26 07:37:10;;;;;;;15.80;7.95;;;;;;;;;;5071010;28;20549;-81
2023/10/26 07:39:36;;;;;;;18.60;8.32;;;;;;;;;;5054291;28;20116;-81
2023/10/26 07:42:02;;;;;;;20.70;10.80;;;;;;;;;;5054635;28;20048;-81
2023/10/26 07:44:28;;;;;;;20.55;8.70;;;;;;;;;;5088664;28;20183;-81
2023/10/26 07:46:54;;;;;;;22.13;10.77;;;;;;;;;;5072694;28;20031;-81
2023/10/26 07:49:19;;;;;;;20.55;8.85;;;;;;;;;;5053909;28;20039;-81
2023/10/26 07:51:44;;;;;;;18.85;9.98;;;;;;;;;;5053192;28;20016;-81
2023/10/26 07:54:09;;;;;;;18.25;9.32;;;;;;;;;;5054379;28;20008;-81
2023/10/26 07:56:36;;;;;;;19.15;9.77;;;;;;;;;;5054191;28;20098;-81
2023/10/26 07:59:01;;;;;;;20.75;9.57;;;;;;;;;;5054223;28;20019;-81
2023/10/26 08:01:26;;;;;;;19.85;9.50;;;;;;;;;;5071979;28;20519;-82
2023/10/26 08:03:54;;;;;;;22.77;10.45;;;;;;;;;;5054151;28;20102;-80
2023/10/26 08:06:20;;;;;;;17.13;9.15;;;;;;;;;;5072631;28;20463;-81
2023/10/26 08:08:45;;;;;;;21.33;9.98;;;;;;;;;;5051990;28;20020;-81
2023/10/26 08:11:11;;;;;;;20.38;10.15;;;;;;;;;;5054161;28;20036;-82
2023/10/26 08:13:44;;;;;;;21.77;10.30;;;;;;;;;;5121506;27;20444;-82
2023/10/26 08:16:10;;;;;;;19.50;10.20;;;;;;;;;;5087887;28;20119;-82
2023/10/26 08:18:35;;;;;;;23.45;10.82;;;;;;;;;;5077965;28;20024;-81
2023/10/26 08:21:03;;;;;;;19.35;9.88;;;;;;;;;;5080875;28;20016;-82
2023/10/26 08:23:29;;;;;;;21.10;10.52;;;;;;;;;;5071942;28;20025;-82
2023/10/26 08:25:55;;;;;;;20.38;9.40;;;;;;;;;;5078070;28;20422;-82
2023/10/26 08:28:20;;;;;;;20.23;10.55;;;;;;;;;;5071181;28;20020;-83
2023/10/26 08:30:49;;;;;;;22.90;10.07;;;;;;;;;;5081892;28;20023;-82
2023/10/26 08:33:15;;;;;;;18.52;9.55;;;;;;;;;;5077167;28;20123;-82
2023/10/26 08:35:47;;;;;;;19.50;7.85;;;;;;;;;;5078060;28;20055;-82
2023/10/26 08:38:12;;;;;;;22.17;10.85;;;;;;;;;;5066493;28;20021;-82
2023/10/26 08:40:38;;;;;;;23.33;10.07;;;;;;;;;;5066744;28;20487;-82
2023/10/26 08:43:05;;;;;;;20.65;9.05;;;;;;;;;;5067098;28;20045;-82
2023/10/26 08:45:31;;;;;;;19.05;7.93;;;;;;;;;;5065639;28;20025;-82
2023/10/26 08:47:57;;;;;;;16.95;8.25;;;;;;;;;;5067981;28;20029;-81
2023/10/26 08:50:23;;;;;;;21.50;9.38;;;;;;;;;;5066796;28;20033;-82
2023/10/26 08:52:49;;;;;;;17.77;8.57;;;;;;;;;;5066769;28;20043;-82
2023/10/26 08:55:16;;;;;;;18.02;8.68;;;;;;;;;;5066371;28;20021;-82
2023/10/26 08:57:52;;;;;;;21.98;10.45;;;;;;;;;;5066513;28;20028;-82
2023/10/26 09:00:17;;;;;;;22.02;10.10;;;;;;;;;;5066030;28;20023;-83
2023/10/26 09:02:43;;;;;;;20.75;10.13;;;;;;;;;;5054323;28;20788;-83
2023/10/26 09:05:10;;;;;;;20.13;9.50;;;;;;;;;;5066508;28;20017;-84
2023/10/26 09:07:35;;;;;;;19.30;9.10;;;;;;;;;;5066267;28;20036;-81
2023/10/26 09:10:01;;;;;;;16.00;7.60;;;;;;;;;;5066294;28;20032;-81
2023/10/26 09:12:26;;;;;;;23.60;9.95;;;;;;;;;;5066076;28;20089;-82
2023/10/26 09:14:58;;;;;;;16.30;7.38;;;;;;;;;;5066266;28;20032;-82
2023/10/26 09:17:27;;;;;;;13.02;6.47;;;;;;;;;;5065802;28;20464;-83
2023/10/26 09:19:53;;;;;;;19.17;9.40;;;;;;;;;;5066976;28;20115;-83
2023/10/26 09:22:18;;;;;;;18.77;8.95;;;;;;;;;;5064350;28;20111;-81
2023/10/26 09:24:43;;;;;;;22.48;10.48;;;;;;;;;;5054143;28;20048;-80
2023/10/26 09:27:16;;;;;;;18.55;8.27;;;;;;;;;;5051057;28;20021;-80
2023/10/26 09:29:41;;;;;;;16.45;8.20;;;;;;;;;;5051640;28;20147;-80
2023/10/26 09:32:07;;;;;;;19.90;7.65;;;;;;;;;;5051143;28;20112;-80
2023/10/26 09:34:43;;;;;;;16.88;8.07;;;;;;;;;;5051702;28;20021;-80
2023/10/26 09:37:09;;;;;;;16.33;6.80;;;;;;;;;;5038728;28;20032;-80
2023/10/26 09:39:35;;;;;;;16.02;7.55;;;;;;;;;;5051595;28;20056;-80
2023/10/26 09:42:01;;;;;;;18.83;8.75;;;;;;;;;;5052551;28;20052;-80
2023/10/26 09:44:30;;;;;;;16.65;8.15;;;;;;;;;;5052813;28;20027;-80
2023/10/26 09:46:56;;;;;;;17.92;8.57;;;;;;;;;;5053523;28;20044;-80
2023/10/26 09:49:22;;;;;;;20.45;9.27;;;;;;;;;;5052433;28;20017;-80
2023/10/26 09:51:47;;;;;;;20.00;10.35;;;;;;;;;;5052383;28;20452;-80
2023/10/26 09:54:13;;;;;;;20.45;9.38;;;;;;;;;;5052362;28;20063;-79
2023/10/26 09:56:41;;;;;;;25.67;12.57;;;;;;;;;;5053385;28;20025;-80
2023/10/26 09:59:06;;;;;;;21.52;10.05;;;;;;;;;;5052246;28;20025;-79
2023/10/26 10:01:36;;;;;;;20.52;9.32;;;;;;;;;;5052187;28;20108;-81
2023/10/26 10:04:02;;;;;;;28.25;11.27;;;;;;;;;;5052046;28;20517;-80
2023/10/26 10:06:47;;;;;;;28.00;10.98;;;;;;;;;;5052353;28;20432;-80
2023/10/26 10:09:12;;;;;;;29.02;13.30;;;;;;;;;;5052126;28;20029;-80
2023/10/26 10:11:38;;;;;;;30.52;13.45;;;;;;;;;;5051900;28;20024;-80
2023/10/26 10:14:04;;;;;;;43.85;19.80;;;;;;;;;;5053577;28;20079;-80
2023/10/26 10:16:35;;;;;;;51.40;21.02;;;;;;;;;;5051944;28;20025;-80
2023/10/26 10:19:20;;;;;;;48.80;18.25;;;;;;;;;;5051872;28;20104;-79
2023/10/26 10:21:47;;;;;;;63.53;26.65;;;;;;;;;;5051811;28;20481;-80
2023/10/26 10:24:32;;;;;;;81.13;31.95;;;;;;;;;;5052791;28;20017;-80
2023/10/26 10:27:15;;;;;;;58.45;23.73;;;;;;;;;;5043871;28;20032;-80
2023/10/26 10:29:41;;;;;;;53.38;20.10;;;;;;;;;;5053184;28;20017;-80
2023/10/26 10:32:06;;;;;;;38.28;16.08;;;;;;;;;;5051540;28;20029;-80
2023/10/26 10:34:41;;;;;;;58.38;21.48;;;;;;;;;;5052378;28;20040;-80
2023/10/26 10:37:23;;;;;;;50.55;20.75;;;;;;;;;;5051169;28;20460;-80
2023/10/26 10:40:08;;;;;;;38.92;16.20;;;;;;;;;;5051759;28;20021;-80
2023/10/26 10:42:33;;;;;;;52.17;18.75;;;;;;;;;;5050523;28;20033;-81
2023/10/26 10:45:00;;;;;;;35.25;15.25;;;;;;;;;;5051306;28;20035;-81
2023/10/26 10:47:28;;;;;;;26.98;11.30;;;;;;;;;;5049874;28;20025;-80
2023/10/26 10:50:12;;;;;;;31.85;14.40;;;;;;;;;;5051589;28;20433;-80
2023/10/26 10:52:38;;;;;;;31.30;13.07;;;;;;;;;;5051381;28;20048;-81
2023/10/26 10:55:03;;;;;;;26.60;12.05;;;;;;;;;;5051360;28;20021;-81
2023/10/26 10:57:28;;;;;;;22.33;10.52;;;;;;;;;;5050998;28;20479;-80
2023/10/26 10:59:54;;;;;;;18.67;9.27;;;;;;;;;;5052506;28;20020;-80
2023/10/26 11:02:19;;;;;;;21.92;10.55;;;;;;;;;;5052433;28;20021;-81
2023/10/26 11:05:04;;;;;;;19.40;9.30;;;;;;;;;;5051108;28;20226;-81
2023/10/26 11:07:30;;;;;;;19.52;9.70;;;;;;;;;;5064574;28;20759;-81
2023/10/26 11:09:56;;;;;;;20.10;8.98;;;;;;;;;;5050907;28;20033;-81
2023/10/26 11:12:21;;;;;;;24.90;9.70;;;;;;;;;;5050436;28;20021;-81
2023/10/26 11:14:49;;;;;;;21.67;10.13;;;;;;;;;;5050317;28;20109;-81
2023/10/26 11:17:15;;;;;;;19.42;9.30;;;;;;;;;;5051865;28;20044;-81
2023/10/26 11:19:40;;;;;;;17.52;9.15;;;;;;;;;;5043601;28;20679;-80
2023/10/26 11:22:06;;;;;;;18.70;8.55;;;;;;;;;;5050680;28;20040;-81
2023/10/26 11:24:31;;;;;;;15.25;7.65;;;;;;;;;;5050683;28;20031;-80
2023/10/26 11:27:06;;;;;;;14.40;7.45;;;;;;;;;;5050254;28;20025;-81
2023/10/26 11:29:31;;;;;;;13.27;6.22;;;;;;;;;;5050148;28;20028;-80
2023/10/26 11:31:56;;;;;;;15.13;7.50;;;;;;;;;;5050204;28;20025;-81
2023/10/26 11:34:25;;;;;;;14.80;6.72;;;;;;;;;;5050065;28;20464;-81
2023/10/26 11:36:52;;;;;;;12.77;6.90;;;;;;;;;;5050023;28;20017;-81
2023/10/26 11:39:17;;;;;;;16.08;7.85;;;;;;;;;;5050013;28;20013;-81
2023/10/26 11:41:51;;;;;;;17.23;8.10;;;;;;;;;;5050292;28;20028;-79
2023/10/26 11:44:29;;;;;;;16.13;6.75;;;;;;;;;;5057182;28;20111;-81
2023/10/26 11:46:58;;;;;;;12.93;6.75;;;;;;;;;;5065090;28;20052;-81
2023/10/26 11:49:37;;;;;;;13.43;6.80;;;;;;;;;;5070138;28;20367;-81
2023/10/26 11:52:02;;;;;;;15.70;7.45;;;;;;;;;;5064059;28;20119;-80
2023/10/26 11:54:27;;;;;;;14.77;6.90;;;;;;;;;;5068503;28;20124;-81
2023/10/26 11:56:55;;;;;;;14.35;6.63;;;;;;;;;;5063467;28;20048;-81
2023/10/26 11:59:20;;;;;;;13.13;7.15;;;;;;;;;;5060947;28;20019;-81
2023/10/26 12:01:45;;;;;;;16.65;8.18;;;;;;;;;;5065616;28;20112;-81
2023/10/26 12:04:11;;;;;;;13.45;6.82;;;;;;;;;;5066730;28;20063;-80
2023/10/26 12:06:36;;;;;;;16.42;7.15;;;;;;;;;;5071678;28;20029;-81
2023/10/26 12:09:03;;;;;;;14.02;6.72;;;;;;;;;;5060780;28;20021;-81
2023/10/26 12:11:29;;;;;;;16.05;7.85;;;;;;;;;;5069719;28;20024;-81
2023/10/26 12:13:54;;;;;;;16.52;8.02;;;;;;;;;;5065513;28;20017;-81
2023/10/26 12:16:19;;;;;;;15.80;6.50;;;;;;;;;;5067546;28;20082;-81
2023/10/26 12:18:44;;;;;;;13.60;7.00;;;;;;;;;;5056859;28;20020;-81
2023/10/26 12:21:09;;;;;;;15.80;8.27;;;;;;;;;;5067042;28;20035;-81
2023/10/26 12:23:35;;;;;;;17.27;8.27;;;;;;;;;;5069812;28;20111;-80
2023/10/26 12:26:00;;;;;;;15.65;7.88;;;;;;;;;;5057232;28;20021;-80
2023/10/26 12:28:26;;;;;;;16.58;7.63;;;;;;;;;;5058661;28;20499;-81
2023/10/26 12:30:51;;;;;;;16.20;8.20;;;;;;;;;;5070130;28;20023;-80
2023/10/26 12:33:16;;;;;;;16.63;8.02;;;;;;;;;;5060173;28;20024;-81
2023/10/26 12:35:41;;;;;;;17.55;8.98;;;;;;;;;;5050523;28;20013;-81
2023/10/26 12:38:07;;;;;;;17.05;8.23;;;;;;;;;;5048211;28;20104;-80
2023/10/26 12:40:32;;;;;;;17.30;8.32;;;;;;;;;;5049227;28;20021;-80
2023/10/26 12:42:57;;;;;;;17.55;8.70;;;;;;;;;;5049595;28;20024;-80
2023/10/26 12:45:23;;;;;;;18.80;8.88;;;;;;;;;;5049761;28;20017;-81
2023/10/26 12:47:48;;;;;;;20.67;7.80;;;;;;;;;;5049628;28;20499;-81
2023/10/26 12:50:13;;;;;;;17.73;8.48;;;;;;;;;;5049470;28;20071;-81
2023/10/26 12:52:39;;;;;;;18.10;8.32;;;;;;;;;;5048635;28;20033;-81
2023/10/26 12:55:04;;;;;;;16.80;7.72;;;;;;;;;;5049820;28;20091;-81
2023/10/26 12:57:30;;;;;;;17.70;8.75;;;;;;;;;;5051108;28;20092;-81
2023/10/26 12:59:55;;;;;;;20.35;8.60;;;;;;;;;;5052422;28;20024;-81
2023/10/26 13:02:20;;;;;;;21.20;9.43;;;;;;;;;;5053112;28;20013;-81
2023/10/26 13:04:48;;;;;;;18.77;9.60;;;;;;;;;;5053021;28;20116;-81
2023/10/26 13:07:13;;;;;;;24.55;10.52;;;;;;;;;;5052145;28;20025;-81
2023/10/26 13:09:41;;;;;;;19.13;9.27;;;;;;;;;;5053686;28;20021;-81
2023/10/26 13:12:06;;;;;;;18.45;9.18;;;;;;;;;;5054515;28;20444;-81
2023/10/26 13:14:32;;;;;;;19.52;8.57;;;;;;;;;;5054394;28;20036;-81
2023/10/26 13:16:57;;;;;;;17.20;9.02;;;;;;;;;;5053141;28;20014;-81
2023/10/26 13:19:27;;;;;;;23.58;9.98;;;;;;;;;;5051892;28;20086;-81
2023/10/26 13:21:52;;;;;;;17.55;8.95;;;;;;;;;;5054246;28;20021;-81
2023/10/26 13:24:17;;;;;;;21.83;10.05;;;;;;;;;;5052772;28;20017;-81
2023/10/26 13:26:43;;;;;;;20.63;9.88;;;;;;;;;;5052643;28;20568;-81
2023/10/26 13:29:08;;;;;;;21.90;9.70;;;;;;;;;;5052130;28;20051;-80
2023/10/26 13:31:33;;;;;;;19.00;9.00;;;;;;;;;;5053883;28;20060;-81
2023/10/26 13:33:58;;;;;;;23.23;9.85;;;;;;;;;;5052375;28;20055;-81
2023/10/26 13:36:24;;;;;;;19.83;9.18;;;;;;;;;;5052554;28;20017;-81
2023/10/26 13:38:49;;;;;;;19.95;9.32;;;;;;;;;;5052418;28;20021;-80
2023/10/26 13:41:16;;;;;;;23.08;10.18;;;;;;;;;;5052163;28;20021;-81
2023/10/26 13:43:41;;;;;;;20.30;9.65;;;;;;;;;;5053626;28;20102;-80
2023/10/26 13:46:06;;;;;;;19.48;9.82;;;;;;;;;;5053693;28;20476;-80
2023/10/26 13:48:31;;;;;;;24.55;10.52;;;;;;;;;;5052159;28;20480;-81
2023/10/26 13:50:57;;;;;;;28.55;10.75;;;;;;;;;;5052490;28;20036;-81
2023/10/26 13:53:22;;;;;;;19.98;9.60;;;;;;;;;;5052213;28;20021;-80
2023/10/26 13:55:47;;;;;;;21.98;9.68;;;;;;;;;;5052523;28;20013;-81
2023/10/26 13:58:12;;;;;;;25.75;10.93;;;;;;;;;;5051739;28;20020;-80
2023/10/26 14:00:38;;;;;;;20.75;9.95;;;;;;;;;;5047853;28;20018;-81
2023/10/26 14:03:04;;;;;;;29.25;11.85;;;;;;;;;;5040540;28;20056;-81
2023/10/26 14:05:29;;;;;;;24.77;10.90;;;;;;;;;;5051427;28;20383;-81
2023/10/26 14:07:55;;;;;;;28.45;12.75;;;;;;;;;;5051790;28;20032;-81
2023/10/26 14:10:20;;;;;;;29.80;12.65;;;;;;;;;;5051176;28;20082;-80
2023/10/26 14:12:45;;;;;;;32.38;12.70;;;;;;;;;;5053374;28;20059;-81
2023/10/26 14:15:11;;;;;;;30.30;13.25;;;;;;;;;;5052324;28;20025;-81
2023/10/26 14:17:36;;;;;;;31.00;12.68;;;;;;;;;;5051361;28;20028;-82